Flight Track Log - Related Links

Times and Time Zones

All times are in EDT time to prevent confusion due to time zone crossing. See the N143DE flight status page for this flight to view local times or setup timezone preferences in your user account.

Time Position Orientation Groundspeed Altitude Reporting Facility
EDT Latitude Longitude Course Direction KTS MPH feet Rate Location/Type
Sat 10:52:00 AM 33.4481 -79.1659 223° Southwest  Level FlightAware Approximate
Sat 10:53:00 AM 33.4111 -79.2066 223° Southwest  Level FlightAware Approximate
Sat 10:54:00 AM 33.3741 -79.2473 223° Southwest  Level FlightAware Approximate
Sat 10:55:00 AM 33.3370 -79.2880 223° Southwest  Level FlightAware Approximate
Sat 10:56:00 AM 33.3000 -79.3286 223° Southwest  Level FlightAware Approximate
Sat 10:57:00 AM 33.2629 -79.3692 222° Southwest  Level FlightAware Approximate
Sat 10:58:00 AM 33.2265 -79.4106 224° Southwest  Level FlightAware Approximate
Sat 10:59:00 AM 33.1903 -79.4523 224° Southwest  Level FlightAware Approximate
Sat 11:00:00 AM 33.1542 -79.4941 224° Southwest  Level FlightAware Approximate
Sat 11:01:00 AM 33.1181 -79.5358 224° Southwest  Level FlightAware Approximate
Sat 11:02:00 AM 33.0819 -79.5775 224° Southwest  Level FlightAware Approximate
Sat 11:03:00 AM 33.0457 -79.6191 224° Southwest  Level FlightAware Approximate
Sat 11:04:00 AM 33.0041 -79.6459 220° Southwest  Level FlightAware Approximate
Sat 11:05:00 AM 32.9656 -79.6844 220° Southwest  Level FlightAware Approximate
Sat 11:06:00 AM 32.9271 -79.7229 220° Southwest  Level FlightAware Approximate
Sat 11:07:00 AM 32.8886 -79.7614 220° Southwest  Level FlightAware Approximate
Sat 11:08:00 AM 32.8833 -79.7667 220° Southwest  Level FlightAware Approximate
Sat 11:09:00 AM 32.8978 -79.7829 220° Southwest  Level Estimated
Sat 11:10:00 AM 32.8978 -79.7829 220° Southwest  Level Estimated
Sat 11:11:00 AM 32.8978 -79.7829 220° Southwest  Level Estimated
Sat 11:12:00 AM 32.8978 -79.7829 220° Southwest  Level Estimated
Sat 11:13:00 AM 32.8978 -79.7829 220° Southwest  Level Estimated
Sat 11:14:00 AM 32.8978 -79.7829 220° Southwest  Level Estimated

Login

Don't have an account? Register now (free) for customized features, flight alerts, and more!